Home   Weather   Germany   Nordkirchen   Past weeks
Flag for Germany

Past Weather in Nordkirchen, North Rhine-Westphalia, Germany — Yesterday and Last 2 Weeks

Currently: 39 °F. Fog. (Weather station: Dortmund / Wickede, Germany). See more current weather

Past Weather in Nordkirchen — Graph

°F

Nordkirchen Temperature Yesterday

Maximum temperature yesterday: 61 °F (at 1:50 pm)
Minimum temperature yesterday: 43 °F (at 5:20 am)
Average temperature yesterday: 51 °F

High & Low Weather Summary for the Past Weeks

 TemperatureHumidityPressure
High66 °F (Feb 21, 3:20 pm)100% (Feb 26, 3:20 am)30.72 "Hg (Feb 26, 3:20 am)
Low30 °F (Mar 2, 6:50 am)27% (Mar 2, 3:20 pm)29.71 "Hg (Feb 18, 6:20 pm)
Average50 °F70%30.27 "Hg
* Reported Feb 17 7:20 am — Mar 4 7:20 am, Nordkirchen. Weather by CustomWeather, © 2021

Note: Actual official high and low records may vary slightly from our data, if they occured in-between our weather recording intervals... More about our weather records

Nordkirchen Weather History for the Previous 24 Hours

Scroll right to see more
 ConditionsComfort  
Time TempWeatherWind HumidityBarometerVisibility
7:20 am
Thu, Mar 4
39 °FFog.1 mph100%30.12 "Hg1 mi
6:50 am39 °FFog.3 mph100%30.12 "Hg1 mi
6:20 am39 °FFog.No wind100%30.12 "Hg1 mi
5:50 am41 °FFog.1 mph93%30.12 "Hg2 mi
5:20 am41 °FFog.No wind93%30.15 "Hg2 mi
4:50 am41 °FPassing clouds.2 mph93%30.15 "Hg2 mi
4:20 am41 °FPassing clouds.2 mph93%30.15 "Hg2 mi
3:50 am41 °FPartly cloudy.1 mph93%30.18 "Hg2 mi
3:20 am43 °FPartly cloudy.No wind93%30.15 "Hg3 mi
2:50 am43 °FPartly cloudy.No wind87%30.18 "Hg3 mi
2:20 am43 °FPassing clouds.No wind87%30.18 "Hg4 mi
1:50 am43 °FClear.No wind93%30.18 "Hg4 mi
1:20 am45 °FPassing clouds.6 mph81%30.21 "Hg5 mi
12:50 am45 °FPassing clouds.3 mph81%30.21 "Hg5 mi
12:20 am43 °FClear.5 mph81%30.21 "Hg4 mi
11:50 pm
Wed, Mar 3
46 °FPassing clouds.3 mph76%30.21 "Hg4 mi
11:20 pm48 °FPassing clouds.5 mph76%30.21 "Hg6 mi
10:50 pm48 °FClear.3 mph76%30.24 "HgN/A
10:20 pm50 °FClear.1 mph67%30.24 "Hg10 mi
9:50 pm52 °FClear.2 mph62%30.24 "Hg10 mi
9:20 pm52 °FClear.5 mph62%30.24 "Hg10 mi
8:50 pm52 °FClear.3 mph62%30.24 "Hg10 mi
8:20 pm52 °FClear.5 mph62%30.24 "Hg10 mi
7:50 pm54 °FClear.2 mph58%30.27 "Hg10 mi
7:20 pm55 °FClear.No wind59%30.27 "Hg10 mi
6:50 pm54 °FClear.2 mph58%30.27 "Hg10 mi
6:20 pm52 °FClear.7 mph62%30.27 "Hg10 mi
5:50 pm54 °FSunny.7 mph63%30.27 "Hg10 mi
5:20 pm59 °FPassing clouds.6 mph48%30.27 "HgN/A
4:50 pm59 °FPassing clouds.7 mph48%30.27 "HgN/A
4:20 pm59 °FPassing clouds.8 mph48%30.27 "HgN/A
3:50 pm59 °FSunny.9 mph48%30.27 "Hg10 mi
3:20 pm61 °FPassing clouds.8 mph45%30.30 "HgN/A
2:50 pm59 °FSunny.9 mph48%30.30 "Hg10 mi
2:20 pm61 °FSunny.13 mph45%30.30 "Hg10 mi
1:50 pm61 °FSunny.10 mph48%30.30 "Hg10 mi
1:20 pm59 °FSunny.9 mph51%30.33 "Hg10 mi
12:50 pm59 °FPassing clouds.9 mph48%30.33 "HgN/A
12:20 pm57 °FSunny.9 mph51%30.33 "Hg10 mi
11:50 am55 °FSunny.7 mph51%30.33 "Hg10 mi
11:20 am54 °FSunny.6 mph51%30.33 "Hg10 mi
10:50 am52 °FSunny.7 mph54%30.36 "Hg10 mi
10:20 am50 °FSunny.10 mph58%30.36 "Hg10 mi
9:50 am48 °FSunny.9 mph62%30.36 "Hg10 mi
9:20 am46 °FSunny.10 mph62%30.36 "Hg10 mi
8:50 am45 °FSunny.12 mph66%30.36 "Hg10 mi
8:20 am45 °FSunny.10 mph66%30.36 "Hg10 mi
Weather by CustomWeather, © 2021

See weather overview